createdAt,value
2022-11-14T00:02:40.907Z,97.23
2022-11-14T00:05:45.513Z,97.02
2022-11-14T00:08:49.861Z,97.39
2022-11-14T00:11:51.614Z,96.57
2022-11-14T00:14:56.060Z,96.81
2022-11-14T00:17:57.603Z,97.82
2022-11-14T00:20:59.181Z,97.49
2022-11-14T00:24:02.084Z,97.37
2022-11-14T00:27:03.611Z,97.16
2022-11-14T00:30:05.570Z,96.87
2022-11-14T00:33:07.173Z,96.84
2022-11-14T00:36:09.014Z,96.83
2022-11-14T00:39:14.023Z,97.07
2022-11-14T00:42:15.577Z,96.98
2022-11-14T00:45:17.266Z,97.15
2022-11-14T00:48:18.807Z,97.54
2022-11-14T00:51:20.370Z,97.73
2022-11-14T00:54:23.346Z,98.02
2022-11-14T00:57:24.853Z,98.19
2022-11-14T01:00:26.360Z,98.38
2022-11-14T01:03:27.900Z,98.30
2022-11-14T01:06:29.336Z,98.68
2022-11-14T01:09:32.369Z,98.49
2022-11-14T01:12:34.115Z,98.46
2022-11-14T01:15:38.785Z,98.20
2022-11-14T01:18:40.439Z,98.67
2022-11-14T01:21:41.926Z,98.69
2022-11-14T01:24:45.282Z,98.51
2022-11-14T01:27:46.860Z,98.25
2022-11-14T01:30:48.383Z,98.78
2022-11-14T01:33:51.118Z,98.90
2022-11-14T01:36:52.757Z,99.12
2022-11-14T01:39:55.701Z,98.91
2022-11-14T01:43:12.096Z,98.86
2022-11-14T01:46:15.530Z,99.04
2022-11-14T01:49:19.398Z,99.17
2022-11-14T01:52:23.401Z,98.64
2022-11-14T01:55:27.644Z,98.46
2022-11-14T01:58:30.613Z,98.76
2022-11-14T02:01:34.270Z,98.53
2022-11-14T02:04:39.759Z,98.38
2022-11-14T02:07:41.671Z,98.11
2022-11-14T02:10:44.571Z,98.43
2022-11-14T02:13:46.143Z,98.33
2022-11-14T02:17:07.225Z,98.64
2022-11-14T02:20:20.674Z,98.71
2022-11-14T02:23:26.394Z,98.43
2022-11-14T02:26:28.016Z,98.37
2022-11-14T02:29:31.639Z,98.78
2022-11-14T02:32:57.095Z,99.01
2022-11-14T02:35:56.288Z,99.34
2022-11-14T02:38:57.748Z,99.03
2022-11-14T02:41:59.227Z,99.48
2022-11-14T02:45:00.793Z,99.69
2022-11-14T02:48:02.312Z,99.08
2022-11-14T02:51:05.406Z,99.55
2022-11-14T02:54:06.973Z,100.00
2022-11-14T02:57:08.584Z,99.67
2022-11-14T03:00:14.963Z,99.86
2022-11-14T03:03:17.022Z,100.00
2022-11-14T03:06:19.966Z,99.99
2022-11-14T03:09:21.728Z,99.78
2022-11-14T03:12:23.300Z,100.00
2022-11-14T03:15:25.010Z,100.00
2022-11-14T03:18:26.738Z,100.00
2022-11-14T03:21:29.920Z,100.00
2022-11-14T03:24:31.540Z,100.00
2022-11-14T03:27:33.247Z,100.00
2022-11-14T03:30:34.781Z,100.00
2022-11-14T03:33:36.752Z,100.00
2022-11-14T03:36:39.650Z,100.00
2022-11-14T03:39:41.116Z,100.00
2022-11-14T03:42:42.608Z,100.00
2022-11-14T03:45:44.343Z,100.00
2022-11-14T03:48:45.930Z,100.00
2022-11-14T03:51:48.806Z,100.00
2022-11-14T03:54:50.993Z,100.00
2022-11-14T03:57:52.681Z,100.00
2022-11-14T04:00:56.133Z,100.00
2022-11-14T04:03:57.763Z,100.00
2022-11-14T04:07:00.829Z,100.00
2022-11-14T04:10:02.443Z,100.00
2022-11-14T04:13:04.629Z,100.00
2022-11-14T04:16:09.127Z,100.00
2022-11-14T04:19:10.753Z,100.00
2022-11-14T04:22:13.604Z,100.00
2022-11-14T04:25:15.155Z,100.00
2022-11-14T04:28:16.644Z,100.00
2022-11-14T04:31:18.236Z,100.00
2022-11-14T04:34:19.699Z,100.00
2022-11-14T04:37:22.665Z,100.00
2022-11-14T04:40:24.187Z,100.00
2022-11-14T04:43:25.811Z,100.00
2022-11-14T04:46:27.333Z,100.00
2022-11-14T04:49:28.874Z,100.00
2022-11-14T04:52:31.751Z,100.00
2022-11-14T04:55:33.485Z,100.00
2022-11-14T04:58:35.051Z,100.00
2022-11-14T05:01:36.566Z,100.00
2022-11-14T05:04:38.126Z,100.00
2022-11-14T05:07:41.632Z,100.00
2022-11-14T05:10:44.763Z,100.00
2022-11-14T05:13:46.325Z,100.00
2022-11-14T05:16:47.910Z,100.00
2022-11-14T05:19:49.439Z,100.00
2022-11-14T05:22:54.896Z,100.00
2022-11-14T05:26:00.459Z,100.00
2022-11-14T05:29:01.954Z,100.00
2022-11-14T05:32:03.687Z,100.00
2022-11-14T05:35:06.007Z,100.00
2022-11-14T05:38:08.914Z,100.00
2022-11-14T05:41:12.238Z,100.00
2022-11-14T05:44:13.980Z,100.00
2022-11-14T05:47:15.618Z,100.00
2022-11-14T05:50:17.154Z,100.00
2022-11-14T05:53:19.978Z,100.00
2022-11-14T05:56:21.442Z,100.00
2022-11-14T05:59:23.120Z,100.00
2022-11-14T06:02:24.659Z,100.00
2022-11-14T06:05:26.335Z,100.00
2022-11-14T06:08:30.187Z,100.00
2022-11-14T06:11:31.874Z,100.00
2022-11-14T06:14:33.485Z,100.00
2022-11-14T06:17:34.908Z,100.00
2022-11-14T06:20:36.596Z,100.00
2022-11-14T06:23:39.804Z,100.00
2022-11-14T06:26:41.359Z,100.00
2022-11-14T06:29:43.046Z,100.00
2022-11-14T06:32:44.677Z,100.00
2022-11-14T06:35:46.216Z,100.00
2022-11-14T06:38:49.326Z,100.00
2022-11-14T06:41:50.784Z,100.00
2022-11-14T06:44:52.425Z,100.00
2022-11-14T06:47:57.991Z,100.00
2022-11-14T06:51:00.381Z,100.00
2022-11-14T06:54:03.584Z,99.63
2022-11-14T06:57:05.232Z,99.92
2022-11-14T07:00:07.620Z,99.84
2022-11-14T07:03:09.244Z,99.56
2022-11-14T07:06:11.807Z,100.00
2022-11-14T07:09:14.723Z,100.00
2022-11-14T07:12:16.123Z,100.00
2022-11-14T07:15:18.051Z,100.00
2022-11-14T07:18:19.813Z,100.00
2022-11-14T07:21:21.441Z,100.00
2022-11-14T07:24:24.462Z,100.00
2022-11-14T07:27:26.085Z,100.00
2022-11-14T07:30:28.880Z,100.00
2022-11-14T07:33:30.783Z,100.00
2022-11-14T07:36:32.253Z,100.00
2022-11-14T07:39:35.540Z,100.00
2022-11-14T07:42:36.973Z,100.00
2022-11-14T07:45:38.600Z,100.00
2022-11-14T07:48:40.454Z,100.00
2022-11-14T07:51:41.970Z,100.00
2022-11-14T07:54:45.039Z,100.00
2022-11-14T07:57:49.451Z,100.00
2022-11-14T08:00:51.451Z,100.00
2022-11-14T08:03:52.987Z,100.00
2022-11-14T08:06:54.504Z,100.00
2022-11-14T08:09:57.556Z,100.00
2022-11-14T08:13:17.510Z,100.00
2022-11-14T08:16:21.610Z,100.00
2022-11-14T08:19:23.291Z,100.00
2022-11-14T08:22:24.760Z,100.00
2022-11-14T08:25:27.820Z,100.00
2022-11-14T08:28:29.649Z,100.00
2022-11-14T08:31:31.472Z,100.00
2022-11-14T08:34:33.037Z,99.79
2022-11-14T08:37:34.690Z,99.73
2022-11-14T08:40:37.643Z,99.69
2022-11-14T08:43:39.159Z,99.10
2022-11-14T08:46:41.014Z,98.84
2022-11-14T08:49:42.645Z,98.76
2022-11-14T08:52:48.862Z,97.83
2022-11-14T08:55:51.708Z,98.20
2022-11-14T08:58:53.339Z,97.80
2022-11-14T09:01:55.035Z,97.62
2022-11-14T09:04:56.559Z,97.04
2022-11-14T09:07:58.889Z,96.77
2022-11-14T09:11:05.332Z,96.58
2022-11-14T09:14:08.007Z,95.79
2022-11-14T09:17:09.773Z,95.94
2022-11-14T09:20:11.283Z,95.92
2022-11-14T09:23:12.895Z,95.33
2022-11-14T09:26:15.749Z,94.48
2022-11-14T09:29:18.975Z,95.38
2022-11-14T09:32:20.577Z,94.87
2022-11-14T09:35:22.064Z,94.65
2022-11-14T09:38:23.641Z,93.91
2022-11-14T09:41:38.585Z,93.65
2022-11-14T09:44:47.689Z,93.30
2022-11-14T09:47:50.851Z,93.12
2022-11-14T09:50:58.919Z,93.17
2022-11-14T09:54:06.412Z,92.32
2022-11-14T09:57:14.558Z,92.07
2022-11-14T10:00:17.517Z,92.12
2022-11-14T10:03:24.895Z,91.69
2022-11-14T10:06:30.396Z,91.41
2022-11-14T10:09:43.896Z,90.65
2022-11-14T10:12:58.224Z,89.78
2022-11-14T10:16:04.766Z,90.23
2022-11-14T10:19:18.766Z,89.68
2022-11-14T10:22:27.362Z,89.55
2022-11-14T10:25:38.238Z,89.30
2022-11-14T10:28:48.857Z,89.07
2022-11-14T10:31:55.264Z,88.74
2022-11-14T10:35:01.424Z,88.74
2022-11-14T10:38:07.822Z,88.23
2022-11-14T10:41:19.231Z,87.83
2022-11-14T10:44:36.797Z,87.26
2022-11-14T10:47:40.259Z,87.37
2022-11-14T10:50:46.307Z,86.63
2022-11-14T10:53:52.003Z,86.44
2022-11-14T10:56:55.819Z,85.80
2022-11-14T10:59:58.833Z,85.39
2022-11-14T11:03:00.528Z,84.41
2022-11-14T11:06:03.121Z,84.36
2022-11-14T11:09:26.596Z,83.65
2022-11-14T11:12:40.767Z,83.49
2022-11-14T11:15:45.258Z,83.12
2022-11-14T11:18:50.666Z,82.88
2022-11-14T11:21:55.235Z,82.96
2022-11-14T11:24:56.789Z,82.26
2022-11-14T11:28:05.241Z,82.79
2022-11-14T11:31:10.861Z,82.62
2022-11-14T11:34:14.891Z,81.80
2022-11-14T11:37:19.260Z,81.80
2022-11-14T11:40:22.550Z,82.10
2022-11-14T11:43:43.128Z,81.47
2022-11-14T11:46:51.176Z,81.71
2022-11-14T11:49:54.537Z,80.97
2022-11-14T11:53:05.874Z,80.47
2022-11-14T11:56:09.796Z,80.47
2022-11-14T11:59:28.121Z,80.24
2022-11-14T12:02:31.044Z,80.67
2022-11-14T12:05:41.111Z,81.18
2022-11-14T12:08:50.971Z,80.87
2022-11-14T12:11:55.095Z,80.80
2022-11-14T12:15:15.259Z,80.56
2022-11-14T12:18:29.404Z,80.44
2022-11-14T12:21:38.034Z,80.78
2022-11-14T12:24:54.355Z,80.89
2022-11-14T12:28:05.209Z,80.71
2022-11-14T12:31:11.474Z,81.00
2022-11-14T12:34:35.738Z,80.95
2022-11-14T12:37:54.239Z,80.64
2022-11-14T12:40:58.432Z,81.00
2022-11-14T12:44:21.529Z,80.90
2022-11-14T12:47:23.754Z,80.71
2022-11-14T12:50:38.732Z,80.63
2022-11-14T12:53:42.151Z,80.93
2022-11-14T12:57:01.691Z,81.06
2022-11-14T13:00:04.474Z,81.00
2022-11-14T13:03:21.120Z,80.59
2022-11-14T13:06:26.992Z,80.83
2022-11-14T13:09:35.987Z,80.62
2022-11-14T13:12:56.140Z,80.79
2022-11-14T13:16:16.531Z,80.46
2022-11-14T13:19:39.679Z,80.71
2022-11-14T13:22:52.961Z,80.90
2022-11-14T13:26:09.285Z,80.59
2022-11-14T13:29:29.768Z,80.38
2022-11-14T13:33:01.644Z,80.42
2022-11-14T13:36:05.462Z,80.20
2022-11-14T13:39:23.472Z,80.33
2022-11-14T13:42:34.324Z,80.47
2022-11-14T13:45:49.077Z,80.22
2022-11-14T13:49:00.717Z,80.50
2022-11-14T13:52:02.471Z,80.40
2022-11-14T13:55:04.345Z,80.59
2022-11-14T13:58:12.894Z,80.48
2022-11-14T14:01:25.558Z,80.72
2022-11-14T14:04:36.367Z,80.94
2022-11-14T14:07:51.279Z,81.05
2022-11-14T14:10:59.602Z,81.35
2022-11-14T14:14:05.823Z,80.99
2022-11-14T14:17:09.777Z,81.22
2022-11-14T14:20:18.672Z,81.41
2022-11-14T14:23:27.225Z,81.92
2022-11-14T14:26:33.451Z,82.01
2022-11-14T14:29:42.765Z,82.28
2022-11-14T14:32:44.388Z,82.76
2022-11-14T14:35:53.211Z,83.09
2022-11-14T14:39:11.995Z,83.11
2022-11-14T14:42:13.935Z,83.57
2022-11-14T14:45:18.079Z,83.50
2022-11-14T14:48:22.858Z,83.81
2022-11-14T14:51:32.073Z,83.98
2022-11-14T14:54:34.280Z,84.67
2022-11-14T14:57:35.952Z,84.08
2022-11-14T15:00:39.022Z,84.11
2022-11-14T15:03:43.064Z,84.47
2022-11-14T15:06:46.400Z,84.93
2022-11-14T15:09:52.734Z,85.35
2022-11-14T15:12:54.815Z,85.34
2022-11-14T15:15:58.405Z,85.67
2022-11-14T15:19:00.780Z,85.90
2022-11-14T15:22:03.682Z,86.42
2022-11-14T15:25:06.374Z,86.22
2022-11-14T15:28:15.372Z,86.67
2022-11-14T15:31:21.161Z,86.64
2022-11-14T15:34:27.881Z,87.29
2022-11-14T15:37:29.439Z,87.29
2022-11-14T15:40:34.305Z,87.26
2022-11-14T15:43:50.589Z,87.67
2022-11-14T15:46:54.068Z,87.77
2022-11-14T15:50:00.290Z,87.72
2022-11-14T15:53:04.012Z,88.03
2022-11-14T15:56:05.614Z,88.13
2022-11-14T15:59:07.283Z,88.65
2022-11-14T16:02:13.909Z,88.61
2022-11-14T16:05:16.160Z,88.75
2022-11-14T16:08:18.685Z,88.48
2022-11-14T16:11:20.126Z,88.87
2022-11-14T16:14:21.583Z,89.24
2022-11-14T16:17:24.449Z,89.08
2022-11-14T16:20:29.296Z,89.40
2022-11-14T16:23:30.957Z,89.14
2022-11-14T16:26:33.125Z,89.73
2022-11-14T16:29:34.750Z,89.52
2022-11-14T16:32:37.990Z,89.49
2022-11-14T16:35:39.686Z,89.45
2022-11-14T16:38:41.207Z,89.59
2022-11-14T16:41:42.991Z,89.70
2022-11-14T16:44:49.388Z,90.40
2022-11-14T16:47:54.043Z,90.31
2022-11-14T16:50:56.958Z,90.58
2022-11-14T16:53:58.633Z,90.35
2022-11-14T16:57:00.282Z,90.23
2022-11-14T17:00:01.898Z,90.36
2022-11-14T17:03:04.890Z,90.50
2022-11-14T17:06:08.249Z,90.68
2022-11-14T17:09:12.147Z,90.76
2022-11-14T17:12:13.626Z,90.94
2022-11-14T17:15:15.300Z,91.09
2022-11-14T17:18:18.171Z,91.30
2022-11-14T17:21:19.955Z,91.09
2022-11-14T17:24:28.557Z,91.37
2022-11-14T17:27:32.816Z,91.10
2022-11-14T17:30:34.285Z,90.84
2022-11-14T17:33:37.705Z,90.53
2022-11-14T17:36:39.256Z,90.98
2022-11-14T17:39:40.873Z,90.64
2022-11-14T17:42:42.382Z,90.59
2022-11-14T17:45:53.404Z,90.55
2022-11-14T17:48:57.864Z,90.30
2022-11-14T17:51:59.379Z,90.41
2022-11-14T17:55:02.561Z,90.45
2022-11-14T17:58:04.031Z,90.50
2022-11-14T18:01:08.993Z,90.59
2022-11-14T18:04:11.863Z,90.33
2022-11-14T18:07:13.471Z,90.55
2022-11-14T18:10:15.187Z,90.54
2022-11-14T18:13:16.698Z,90.46
2022-11-14T18:16:19.031Z,90.33
2022-11-14T18:19:22.020Z,90.51
2022-11-14T18:22:23.504Z,90.60
2022-11-14T18:25:24.967Z,90.79
2022-11-14T18:28:26.963Z,90.43
2022-11-14T18:31:28.745Z,90.83
2022-11-14T18:34:31.746Z,90.63
2022-11-14T18:37:33.323Z,90.35
2022-11-14T18:40:35.174Z,90.77
2022-11-14T18:43:36.923Z,90.63
2022-11-14T18:46:40.638Z,91.16
2022-11-14T18:49:43.433Z,90.98
2022-11-14T18:52:44.934Z,91.01
2022-11-14T18:55:47.851Z,91.15
2022-11-14T18:58:52.502Z,90.79
2022-11-14T19:01:54.544Z,91.00
2022-11-14T19:04:57.378Z,91.09
2022-11-14T19:07:59.204Z,90.99
2022-11-14T19:11:01.649Z,90.94
2022-11-14T19:14:04.092Z,91.26
2022-11-14T19:17:07.134Z,91.30
2022-11-14T19:20:14.425Z,91.02
2022-11-14T19:23:19.068Z,91.42
2022-11-14T19:26:21.166Z,91.16
2022-11-14T19:29:22.742Z,91.51
2022-11-14T19:32:24.515Z,91.45
2022-11-14T19:35:27.401Z,91.45
2022-11-14T19:38:28.874Z,91.47
2022-11-14T19:41:32.645Z,91.62
2022-11-14T19:44:34.275Z,91.68
2022-11-14T19:47:35.701Z,91.40
2022-11-14T19:50:38.798Z,91.43
2022-11-14T19:53:40.942Z,91.63
2022-11-14T19:56:42.511Z,91.79
2022-11-14T19:59:43.988Z,92.28
2022-11-14T20:02:45.631Z,92.12
2022-11-14T20:05:48.437Z,92.05
2022-11-14T20:08:49.829Z,91.97
2022-11-14T20:11:51.326Z,91.73
2022-11-14T20:14:52.847Z,91.91
2022-11-14T20:17:54.310Z,91.90
2022-11-14T20:21:02.010Z,91.67
2022-11-14T20:24:03.849Z,91.51
2022-11-14T20:27:05.405Z,91.60
2022-11-14T20:30:07.913Z,91.68
2022-11-14T20:33:09.705Z,92.00
2022-11-14T20:36:14.232Z,91.83
2022-11-14T20:39:15.753Z,91.52
2022-11-14T20:42:20.172Z,91.61
2022-11-14T20:45:21.579Z,91.46
2022-11-14T20:48:23.525Z,91.25
2022-11-14T20:51:26.689Z,91.41
2022-11-14T20:54:28.128Z,91.07
2022-11-14T20:57:29.721Z,91.55
2022-11-14T21:00:31.235Z,90.80
2022-11-14T21:03:34.195Z,90.94
2022-11-14T21:06:37.471Z,90.80
2022-11-14T21:09:39.097Z,90.74
2022-11-14T21:12:43.419Z,90.13
2022-11-14T21:15:47.438Z,90.12
2022-11-14T21:18:51.828Z,89.67
2022-11-14T21:21:54.910Z,89.54
2022-11-14T21:24:56.475Z,89.44
2022-11-14T21:27:57.978Z,89.19
2022-11-14T21:31:00.885Z,89.12
2022-11-14T21:34:04.783Z,89.09
2022-11-14T21:37:07.654Z,89.22
2022-11-14T21:40:09.941Z,89.10
2022-11-14T21:43:11.409Z,89.26
2022-11-14T21:46:17.803Z,89.32
2022-11-14T21:49:19.317Z,89.59
2022-11-14T21:52:22.506Z,89.31
2022-11-14T21:55:23.998Z,89.40
2022-11-14T21:58:25.666Z,89.39
2022-11-14T22:01:45.973Z,89.41
2022-11-14T22:04:47.561Z,89.45
2022-11-14T22:07:53.214Z,89.41
2022-11-14T22:11:00.354Z,89.39
2022-11-14T22:14:01.937Z,89.52
2022-11-14T22:17:03.451Z,89.52
2022-11-14T22:20:05.352Z,89.64
2022-11-14T22:23:08.304Z,89.84
2022-11-14T22:26:10.640Z,89.97
2022-11-14T22:29:12.270Z,90.14
2022-11-14T22:32:13.973Z,90.16
2022-11-14T22:35:15.738Z,90.11
2022-11-14T22:38:19.093Z,90.19
2022-11-14T22:41:26.359Z,90.78
2022-11-14T22:44:30.533Z,90.54
2022-11-14T22:47:32.098Z,91.02
2022-11-14T22:50:33.649Z,91.18
2022-11-14T22:53:37.009Z,91.49
2022-11-14T22:56:38.521Z,91.60
2022-11-14T22:59:40.025Z,91.90
2022-11-14T23:02:41.541Z,92.23
2022-11-14T23:05:43.246Z,92.66
2022-11-14T23:08:46.521Z,93.27
2022-11-14T23:11:48.087Z,93.32
2022-11-14T23:14:49.568Z,93.50
2022-11-14T23:17:51.490Z,93.83
2022-11-14T23:20:53.264Z,94.02
2022-11-14T23:23:57.208Z,94.18
2022-11-14T23:26:58.870Z,94.11
2022-11-14T23:30:00.271Z,93.83
2022-11-14T23:33:01.744Z,94.28
2022-11-14T23:36:03.501Z,94.00
2022-11-14T23:39:06.335Z,94.42
2022-11-14T23:42:07.873Z,94.70
2022-11-14T23:45:09.462Z,94.63
2022-11-14T23:48:10.988Z,94.70
2022-11-14T23:51:14.490Z,94.97
2022-11-14T23:54:17.335Z,95.21
2022-11-14T23:57:18.792Z,95.38
